Time;durP1;ratioP1;P1;durP2;ratioP2;P2;SDS_P1;SDS_P2;PMS_P1;PMS_P2;Temp;Humidity;BMP_temperature;BMP_pressure;BME280_temperature;BME280_humidity;BME280_pressure;Samples;Min_cycle;Max_cycle;Signal;HPM_P1;HPM_P2
2022/11/25 00:00:11;;;;;;;22.45;10.18;;;;;;;3.00;80.13;99451.25;346408;28;1161;-68
2022/11/25 00:00:23;;;;;;;20.67;10.32;;;;;;;3.02;79.71;99453.78;346533;28;1299;-68
2022/11/25 00:00:35;;;;;;;20.92;10.35;;;;;;;3.03;80.12;99451.22;346348;28;1132;-68
2022/11/25 00:00:48;;;;;;;20.05;10.05;;;;;;;3.04;79.74;99452.94;346252;28;1192;-69
2022/11/25 00:01:11;;;;;;;19.10;10.30;;;;;;;3.05;80.15;99449.50;346589;28;1266;-69
2022/11/25 00:01:25;;;;;;;19.38;10.27;;;;;;;3.03;80.02;99445.25;346193;28;1600;-68
2022/11/25 00:01:37;;;;;;;17.30;9.90;;;;;;;3.05;79.77;99448.66;346275;28;1303;-69
2022/11/25 00:01:50;;;;;;;17.30;9.55;;;;;;;3.04;79.36;99447.81;346619;28;1054;-68
2022/11/25 00:02:02;;;;;;;20.13;9.75;;;;;;;3.05;79.20;99449.50;346506;28;1161;-68
2022/11/25 00:02:14;;;;;;;21.73;10.30;;;;;;;3.06;78.90;99446.09;346379;28;1272;-68
2022/11/25 00:02:26;;;;;;;22.38;10.32;;;;;;;3.07;78.59;99447.78;344178;28;1083;-69
2022/11/25 00:02:43;;;;;;;21.73;10.25;;;;;;;3.09;78.86;99440.91;345270;28;1197;-68
2022/11/25 00:02:55;;;;;;;20.30;10.10;;;;;;;3.11;79.06;99439.19;345184;28;1034;-68
2022/11/25 00:03:07;;;;;;;18.02;10.05;;;;;;;3.14;79.10;99444.31;345284;28;1198;-68
2022/11/25 00:03:19;;;;;;;17.73;9.90;;;;;;;3.15;79.04;99437.47;345718;28;1288;-68
2022/11/25 00:03:31;;;;;;;18.85;9.73;;;;;;;3.15;79.23;99435.75;345773;28;1954;-69
2022/11/25 00:03:45;;;;;;;18.55;9.93;;;;;;;3.16;78.81;99445.16;346262;28;1569;-68
2022/11/25 00:03:58;;;;;;;19.63;10.25;;;;;;;3.20;78.98;99441.72;344966;28;1047;-68
2022/11/25 00:04:09;;;;;;;20.85;10.07;;;;;;;3.23;78.85;99448.53;344906;28;1292;-68
2022/11/25 00:04:21;;;;;;;20.38;9.40;;;;;;;3.25;78.87;99445.97;345568;28;1205;-68
2022/11/25 00:04:35;;;;;;;21.05;9.55;;;;;;;3.24;78.81;99444.25;346098;28;1071;-68
2022/11/25 00:04:48;;;;;;;20.88;9.82;;;;;;;3.27;78.12;99439.09;346161;28;1178;-68
2022/11/25 00:05:00;;;;;;;19.92;9.63;;;;;;;3.30;78.26;99444.22;345097;28;1557;-68
2022/11/25 00:05:12;;;;;;;19.73;9.70;;;;;;;3.29;78.39;99442.53;345667;28;1796;-68
2022/11/25 00:05:25;;;;;;;17.88;9.20;;;;;;;3.32;78.61;99442.47;346132;28;1269;-69
2022/11/25 00:05:37;;;;;;;18.65;9.52;;;;;;;3.34;78.71;99440.75;346014;28;1813;-69
2022/11/25 00:05:49;;;;;;;17.70;9.40;;;;;;;3.36;78.18;99444.16;345089;28;1253;-69
2022/11/25 00:06:25;;;;;;;17.63;9.65;;;;;;;3.36;78.39;99439.03;343960;28;1231;-69
2022/11/25 00:06:37;;;;;;;19.63;9.82;;;;;;;3.37;78.32;99441.59;346090;28;1053;-69
2022/11/25 00:06:49;;;;;;;19.02;9.45;;;;;;;3.38;78.50;99445.00;346330;28;1066;-69
2022/11/25 00:07:01;;;;;;;18.65;9.35;;;;;;;3.40;78.28;99441.59;345341;28;1668;-69
2022/11/25 00:07:13;;;;;;;17.05;9.13;;;;;;;3.41;78.28;99442.44;346028;28;1753;-69
2022/11/25 00:07:25;;;;;;;18.27;9.57;;;;;;;3.42;78.14;99444.16;344853;28;1750;-69
2022/11/25 00:07:37;;;;;;;20.15;9.50;;;;;;;3.43;78.17;99438.13;345144;28;1163;-68
2022/11/25 00:07:49;;;;;;;20.80;9.63;;;;;;;3.44;78.61;99437.28;346290;28;1320;-68
2022/11/25 00:08:02;;;;;;;19.45;9.75;;;;;;;3.44;78.68;99442.44;346332;28;1110;-68
2022/11/25 00:08:13;;;;;;;18.50;9.75;;;;;;;3.46;78.56;99443.28;345514;28;1757;-68
2022/11/25 00:08:27;;;;;;;18.02;9.48;;;;;;;3.48;78.21;99444.13;346111;28;1560;-68
2022/11/25 00:08:40;;;;;;;18.83;9.43;;;;;;;3.47;78.17;99436.41;346103;28;1048;-68
2022/11/25 00:08:55;;;;;;;17.73;9.32;;;;;;;3.45;78.61;99438.97;345266;28;1795;-68
2022/11/25 00:09:11;;;;;;;17.23;9.40;;;;;;;3.45;78.68;99438.13;344758;28;1978;-67
2022/11/25 00:09:23;;;;;;;17.67;9.55;;;;;;;3.45;78.94;99438.97;345605;28;1067;-68
2022/11/25 00:09:35;;;;;;;18.30;9.35;;;;;;;3.46;78.72;99440.69;346407;28;1136;-68
2022/11/25 00:09:47;;;;;;;16.90;8.85;;;;;;;3.49;78.83;99443.22;346423;28;1265;-68
2022/11/25 00:09:59;;;;;;;17.35;8.73;;;;;;;3.47;78.64;99434.69;346470;28;1133;-68
2022/11/25 00:10:11;;;;;;;17.35;9.10;;;;;;;3.47;78.73;99438.97;346375;28;1504;-68
2022/11/25 00:10:22;;;;;;;18.90;9.30;;;;;;;3.48;79.02;99433.84;346256;28;1314;-67
2022/11/25 00:10:35;;;;;;;20.20;9.55;;;;;;;3.44;79.20;99437.28;346497;28;1446;-68
2022/11/25 00:10:46;;;;;;;21.23;9.38;;;;;;;3.39;78.39;99434.72;346488;28;1056;-68
2022/11/25 00:11:02;;;;;;;16.33;8.70;;;;;;;3.34;77.75;99440.75;346160;28;1321;-67
2022/11/25 00:11:14;;;;;;;15.25;8.02;;;;;;;3.30;78.11;99433.94;346370;28;1428;-68
2022/11/25 00:11:27;;;;;;;15.18;8.07;;;;;;;3.25;77.95;99430.56;346564;28;1232;-68
2022/11/25 00:11:41;;;;;;;15.80;8.20;;;;;;;3.19;77.81;99432.28;346584;28;1191;-67
2022/11/25 00:11:53;;;;;;;17.25;7.97;;;;;;;3.10;77.86;99437.50;346432;28;1082;-68
2022/11/25 00:12:05;;;;;;;18.27;7.85;;;;;;;3.08;78.18;99434.09;346411;28;1026;-68
2022/11/25 00:12:17;;;;;;;18.95;7.90;;;;;;;2.99;77.89;99434.13;346459;28;1105;-68
2022/11/25 00:12:29;;;;;;;17.65;7.97;;;;;;;2.96;78.03;99432.44;346348;28;1303;-68
2022/11/25 00:12:40;;;;;;;16.65;8.10;;;;;;;2.87;78.19;99429.91;346380;28;1046;-68
2022/11/25 00:12:52;;;;;;;16.95;7.63;;;;;;;2.79;78.29;99434.22;346320;28;1247;-68
2022/11/25 00:13:04;;;;;;;18.15;7.30;;;;;;;2.75;78.50;99435.94;346546;28;1241;-69
2022/11/25 00:13:16;;;;;;;17.15;7.05;;;;;;;2.74;78.66;99433.41;346574;28;1155;-68
2022/11/25 00:13:28;;;;;;;16.70;7.45;;;;;;;2.70;78.76;99432.56;345793;28;1058;-68
2022/11/25 00:13:41;;;;;;;17.65;7.65;;;;;;;2.69;78.37;99435.13;345092;28;1095;-68
2022/11/25 00:13:55;;;;;;;18.42;8.38;;;;;;;2.66;78.88;99437.72;345243;28;1062;-68
2022/11/25 00:14:11;;;;;;;19.70;8.43;;;;;;;2.56;79.06;99431.75;345121;28;1233;-68
2022/11/25 00:14:23;;;;;;;19.17;8.30;;;;;;;2.54;79.00;99436.06;345143;28;1079;-67
2022/11/25 00:14:34;;;;;;;18.05;8.60;;;;;;;2.52;79.30;99437.78;344869;28;1027;-67
2022/11/25 00:14:47;;;;;;;15.85;8.10;;;;;;;2.46;79.26;99445.50;344779;28;1047;-68
2022/11/25 00:14:59;;;;;;;14.52;7.65;;;;;;;2.44;79.34;99439.50;345362;28;1244;-68
2022/11/25 00:15:11;;;;;;;14.57;7.55;;;;;;;2.39;79.65;99445.50;345001;28;1283;-68
2022/11/25 00:15:23;;;;;;;15.68;8.02;;;;;;;2.36;79.74;99437.81;344966;28;1804;-68
2022/11/25 00:15:35;;;;;;;16.50;8.15;;;;;;;2.32;79.88;99441.25;345846;28;1676;-68
2022/11/25 00:15:46;;;;;;;15.85;7.80;;;;;;;2.32;79.99;99438.66;346245;28;1393;-68
2022/11/25 00:16:03;;;;;;;16.83;7.97;;;;;;;2.31;80.04;99438.66;345992;28;1896;-68
2022/11/25 00:16:17;;;;;;;15.90;7.60;;;;;;;2.28;80.25;99438.69;345770;28;1854;-69
2022/11/25 00:16:29;;;;;;;15.57;7.78;;;;;;;2.23;80.30;99436.13;346321;28;1011;-68
2022/11/25 00:16:41;;;;;;;16.02;7.93;;;;;;;2.19;80.37;99434.41;345839;28;1810;-68
2022/11/25 00:16:59;;;;;;;16.38;7.93;;;;;;;2.16;80.78;99435.28;345058;28;1025;-68
2022/11/25 00:17:11;;;;;;;17.30;7.85;;;;;;;2.16;80.71;99432.72;345167;28;1013;-68
2022/11/25 00:17:23;;;;;;;19.27;8.30;;;;;;;2.17;81.03;99437.00;345781;28;1322;-68
2022/11/25 00:17:35;;;;;;;17.05;7.97;;;;;;;2.16;80.48;99434.44;346472;28;1018;-68
2022/11/25 00:17:47;;;;;;;18.30;7.85;;;;;;;2.13;81.06;99437.00;346401;28;1039;-68
2022/11/25 00:17:59;;;;;;;15.82;7.70;;;;;;;2.13;80.98;99429.31;346259;28;1632;-67
2022/11/25 00:18:10;;;;;;;15.02;7.75;;;;;;;2.10;81.41;99439.59;346518;28;1014;-68
2022/11/25 00:18:22;;;;;;;14.88;8.18;;;;;;;2.10;81.06;99434.47;345748;28;1633;-68
2022/11/25 00:18:35;;;;;;;18.50;8.43;;;;;;;2.10;81.33;99437.03;346240;28;1780;-68
2022/11/25 00:18:49;;;;;;;19.20;8.57;;;;;;;2.10;81.43;99434.47;346137;28;1223;-67
2022/11/25 00:19:01;;;;;;;18.27;8.63;;;;;;;2.09;81.62;99432.72;345343;28;1772;-68
2022/11/25 00:19:13;;;;;;;18.42;8.40;;;;;;;2.09;81.26;99432.72;346201;28;1322;-68
2022/11/25 00:19:25;;;;;;;16.98;8.32;;;;;;;2.07;81.70;99439.56;346471;28;1318;-68
2022/11/25 00:19:37;;;;;;;16.70;8.27;;;;;;;2.09;81.86;99436.13;346365;28;1038;-68
2022/11/25 00:19:49;;;;;;;16.17;8.25;;;;;;;2.06;81.74;99437.88;345630;28;1050;-68
2022/11/25 00:20:04;;;;;;;15.98;8.05;;;;;;;2.07;81.85;99434.44;345092;28;1156;-69
2022/11/25 00:20:19;;;;;;;15.50;7.78;;;;;;;2.09;81.65;99443.00;343878;28;5176;-68
2022/11/25 00:20:31;;;;;;;15.23;7.88;;;;;;;2.08;81.64;99438.72;345266;28;5465;-68
2022/11/25 00:20:43;;;;;;;15.15;8.00;;;;;;;2.07;82.08;99431.88;345028;28;1031;-68
2022/11/25 00:20:55;;;;;;;15.10;7.85;;;;;;;2.08;82.09;99437.00;344712;28;5560;-68
2022/11/25 00:21:09;;;;;;;14.10;7.65;;;;;;;2.07;81.93;99439.56;344963;28;1070;-69
2022/11/25 00:21:23;;;;;;;15.30;7.60;;;;;;;2.03;82.34;99437.88;345445;28;2143;-68
2022/11/25 00:21:35;;;;;;;17.90;7.95;;;;;;;2.01;82.19;99437.88;346545;28;1289;-68
2022/11/25 00:21:47;;;;;;;16.13;7.80;;;;;;;1.98;82.17;99436.16;346365;28;1022;-68
2022/11/25 00:21:59;;;;;;;14.25;7.65;;;;;;;1.98;82.10;99436.16;346424;28;1454;-68
2022/11/25 00:22:11;;;;;;;14.60;7.80;;;;;;;1.95;82.37;99433.63;346469;28;1053;-68
2022/11/25 00:22:23;;;;;;;15.30;7.63;;;;;;;1.92;82.14;99436.19;346053;28;1245;-68
2022/11/25 00:22:35;;;;;;;15.90;7.65;;;;;;;1.93;82.34;99434.47;346351;28;1054;-68
2022/11/25 00:22:47;;;;;;;16.30;7.68;;;;;;;1.89;82.13;99433.63;346574;28;1073;-68
2022/11/25 00:22:59;;;;;;;16.48;7.53;;;;;;;1.92;82.54;99431.06;346063;28;1076;-68
2022/11/25 00:23:11;;;;;;;15.43;7.50;;;;;;;1.89;82.37;99436.19;346058;28;1960;-68
2022/11/25 00:23:24;;;;;;;13.77;7.30;;;;;;;1.88;82.73;99439.59;345522;28;2193;-68
2022/11/25 00:23:41;;;;;;;13.00;7.30;;;;;;;1.90;82.86;99434.47;344827;28;1171;-68
2022/11/25 00:23:55;;;;;;;13.18;7.15;;;;;;;1.90;82.40;99432.75;345014;28;1023;-68
2022/11/25 00:24:07;;;;;;;15.10;7.10;;;;;;;1.88;82.88;99431.91;344792;28;1078;-68
2022/11/25 00:24:19;;;;;;;18.27;7.45;;;;;;;1.89;82.24;99433.63;345448;28;1318;-68
2022/11/25 00:24:31;;;;;;;17.10;7.63;;;;;;;1.92;82.58;99433.63;346081;28;1019;-68
2022/11/25 00:24:43;;;;;;;15.70;7.88;;;;;;;1.93;82.89;99435.34;346196;28;1078;-68
2022/11/25 00:24:55;;;;;;;15.82;7.93;;;;;;;1.94;83.38;99428.50;346109;28;1098;-68
2022/11/25 00:25:07;;;;;;;16.35;7.60;;;;;;;1.99;83.09;99437.88;345787;28;1882;-68
2022/11/25 00:25:19;;;;;;;15.93;7.35;;;;;;;2.02;83.62;99431.06;345516;28;1166;-68
2022/11/25 00:25:31;;;;;;;16.05;7.18;;;;;;;2.06;83.25;99433.59;346207;28;1074;-68
2022/11/25 00:25:43;;;;;;;13.75;6.93;;;;;;;2.12;83.12;99435.31;346260;28;1059;-68
2022/11/25 00:25:55;;;;;;;14.05;7.22;;;;;;;2.16;83.03;99434.44;346366;28;1159;-68
2022/11/25 00:26:16;;;;;;;13.63;7.20;;;;;;;2.24;83.11;99435.28;345795;28;1879;-67
2022/11/25 00:26:31;;;;;;;13.90;7.25;;;;;;;2.27;83.18;99432.69;345320;28;1019;-68
2022/11/25 00:26:43;;;;;;;14.25;7.35;;;;;;;2.31;83.39;99433.53;345158;28;891;-68
2022/11/25 00:26:55;;;;;;;15.15;7.35;;;;;;;2.33;83.51;99430.09;346414;28;1355;-68
2022/11/25 00:27:07;;;;;;;15.50;7.20;;;;;;;2.38;83.31;99433.53;346328;28;1022;-68
2022/11/25 00:27:19;;;;;;;13.93;7.50;;;;;;;2.39;83.42;99430.13;345202;28;1685;-68
2022/11/25 00:27:31;;;;;;;16.27;7.53;;;;;;;2.46;83.35;99432.66;345563;28;1805;-68
2022/11/25 00:27:43;;;;;;;15.70;7.07;;;;;;;2.50;83.19;99429.22;345741;28;1010;-68
2022/11/25 00:27:55;;;;;;;13.23;6.20;;;;;;;2.53;83.00;99431.75;346904;28;1742;-68
2022/11/25 00:28:07;;;;;;;11.45;6.25;;;;;;;2.55;83.22;99425.75;347930;28;1278;-68
2022/11/25 00:28:19;;;;;;;11.70;6.70;;;;;;;2.56;83.14;99421.50;347409;28;1309;-68
2022/11/25 00:28:31;;;;;;;13.15;6.90;;;;;;;2.58;83.36;99422.34;346178;28;1271;-68
2022/11/25 00:28:44;;;;;;;13.40;6.80;;;;;;;2.60;83.24;99426.59;346513;28;1041;-68
2022/11/25 00:28:58;;;;;;;13.30;6.53;;;;;;;2.66;82.93;99424.88;346214;28;1445;-67
2022/11/25 00:29:12;;;;;;;11.98;6.53;;;;;;;2.68;82.75;99429.16;346531;28;1031;-68
2022/11/25 00:29:24;;;;;;;14.18;6.35;;;;;;;2.71;82.80;99423.97;346259;28;1330;-68
2022/11/25 00:29:36;;;;;;;14.20;6.40;;;;;;;2.75;82.34;99420.53;345533;28;2143;-67
2022/11/25 00:29:48;;;;;;;11.55;6.35;;;;;;;2.69;82.42;99425.72;344348;28;1794;-68
2022/11/25 00:30:00;;;;;;;11.18;6.38;;;;;;;2.63;82.41;99424.88;343729;28;1058;-67
2022/11/25 00:30:12;;;;;;;14.15;6.75;;;;;;;2.66;82.31;99423.16;344263;28;1664;-67
2022/11/25 00:30:24;;;;;;;16.30;6.97;;;;;;;2.68;82.28;99429.16;344501;28;1347;-68
2022/11/25 00:30:36;;;;;;;16.45;7.10;;;;;;;2.65;82.14;99424.00;344381;28;1277;-68
2022/11/25 00:30:48;;;;;;;15.30;7.07;;;;;;;2.59;82.28;99426.59;344967;28;1301;-68
2022/11/25 00:31:08;;;;;;;15.35;7.07;;;;;;;2.58;82.36;99424.91;343425;28;1902;-68
2022/11/25 00:31:26;;;;;;;14.68;7.30;;;;;;;2.58;82.85;99428.31;343348;28;1374;-68
2022/11/25 00:31:39;;;;;;;14.18;7.35;;;;;;;2.55;82.94;99422.34;343653;28;892;-68
2022/11/25 00:31:51;;;;;;;14.18;7.20;;;;;;;2.54;82.94;99436.06;344346;28;1022;-68
2022/11/25 00:32:03;;;;;;;14.50;7.22;;;;;;;2.57;82.66;99425.75;344705;28;1116;-68
2022/11/25 00:32:15;;;;;;;14.88;7.18;;;;;;;2.56;82.85;99419.78;344808;28;1026;-68
2022/11/25 00:32:27;;;;;;;13.63;7.22;;;;;;;2.55;82.66;99424.91;344581;28;1015;-68
2022/11/25 00:32:39;;;;;;;12.68;7.10;;;;;;;2.54;82.77;99420.66;344558;28;2242;-68
2022/11/25 00:32:52;;;;;;;12.57;7.07;;;;;;;2.55;82.67;99419.78;345755;28;1729;-68
2022/11/25 00:33:05;;;;;;;12.25;6.90;;;;;;;2.53;82.62;99426.63;344966;28;1820;-68
2022/11/25 00:33:17;;;;;;;11.45;6.85;;;;;;;2.52;82.75;99424.94;344904;28;1727;-68
2022/11/25 00:33:29;;;;;;;11.80;6.78;;;;;;;2.51;82.87;99431.75;345173;28;1871;-68
2022/11/25 00:33:41;;;;;;;12.45;7.18;;;;;;;2.47;83.06;99429.22;345357;28;1045;-68
2022/11/25 00:33:54;;;;;;;12.75;7.30;;;;;;;2.45;82.88;99425.81;345768;28;1877;-68
2022/11/25 00:34:06;;;;;;;13.70;7.32;;;;;;;2.48;82.86;99425.81;346556;28;1311;-69
2022/11/25 00:34:18;;;;;;;15.30;7.60;;;;;;;2.46;82.65;99430.09;346399;28;1278;-68
2022/11/25 00:34:30;;;;;;;14.38;7.47;;;;;;;2.40;83.11;99431.81;346328;28;1022;-68
2022/11/25 00:34:42;;;;;;;15.02;7.38;;;;;;;2.40;82.92;99434.38;345876;28;2076;-68
2022/11/25 00:34:54;;;;;;;14.75;7.13;;;;;;;2.40;82.54;99429.25;345684;28;1300;-68
2022/11/25 00:35:06;;;;;;;13.40;6.97;;;;;;;2.37;82.73;99424.13;346555;28;1063;-68
2022/11/25 00:35:18;;;;;;;14.02;7.32;;;;;;;2.38;82.56;99425.81;346049;28;1381;-68
2022/11/25 00:35:33;;;;;;;15.32;7.15;;;;;;;2.35;82.21;99427.53;346559;28;1157;-67
2022/11/25 00:35:45;;;;;;;14.23;7.05;;;;;;;2.36;82.09;99426.69;345538;28;1867;-68
2022/11/25 00:36:00;;;;;;;11.65;6.63;;;;;;;2.32;81.96;99420.72;345908;28;1867;-69
2022/11/25 00:36:27;;;;;;;12.77;7.13;;;;;;;2.30;81.80;99427.56;346493;28;1284;-68
2022/11/25 00:36:40;;;;;;;13.02;6.57;;;;;;;2.25;81.45;99424.16;345805;28;1950;-68
2022/11/25 00:36:55;;;;;;;13.13;6.60;;;;;;;2.19;81.60;99429.28;346129;28;2021;-68
2022/11/25 00:37:07;;;;;;;15.32;6.85;;;;;;;2.20;81.32;99431.84;346166;28;1154;-67
2022/11/25 00:37:19;;;;;;;16.88;7.03;;;;;;;2.24;81.47;99424.16;345985;28;1347;-68
2022/11/25 00:37:31;;;;;;;15.13;7.13;;;;;;;2.26;81.47;99427.59;346036;28;1019;-68
2022/11/25 00:37:43;;;;;;;15.32;7.28;;;;;;;2.29;81.26;99425.84;346120;28;1420;-68
2022/11/25 00:37:55;;;;;;;15.68;7.10;;;;;;;2.33;81.46;99419.84;346291;28;1079;-68
2022/11/25 00:38:07;;;;;;;14.23;6.43;;;;;;;2.37;81.39;99423.25;346055;28;1217;-68
2022/11/25 00:38:19;;;;;;;13.10;6.18;;;;;;;2.40;81.33;99425.84;346217;28;1344;-68
2022/11/25 00:38:31;;;;;;;12.95;6.18;;;;;;;2.38;81.20;99420.69;345376;28;4580;-68
2022/11/25 00:38:43;;;;;;;13.38;6.40;;;;;;;2.43;81.10;99414.69;345107;28;1071;-68
2022/11/25 00:39:00;;;;;;;12.75;6.30;;;;;;;2.45;80.65;99420.69;345385;28;1751;-67
2022/11/25 00:39:14;;;;;;;10.88;6.13;;;;;;;2.48;80.78;99415.53;345181;28;1232;-68
2022/11/25 00:39:27;;;;;;;10.95;5.97;;;;;;;2.50;80.70;99417.25;346061;28;1224;-68
2022/11/25 00:39:39;;;;;;;11.77;5.95;;;;;;;2.54;80.64;99415.53;346222;28;1205;-68
2022/11/25 00:39:51;;;;;;;12.73;6.03;;;;;;;2.55;80.35;99418.06;346887;28;1428;-68
2022/11/25 00:40:04;;;;;;;13.00;6.10;;;;;;;2.58;80.62;99417.22;347639;28;1066;-68
2022/11/25 00:40:16;;;;;;;11.10;6.03;;;;;;;2.56;80.13;99414.66;347154;28;1599;-68
2022/11/25 00:40:28;;;;;;;10.38;6.25;;;;;;;2.51;79.54;99418.94;346289;28;1097;-68
2022/11/25 00:40:40;;;;;;;10.65;6.20;;;;;;;2.48;79.58;99411.25;346215;28;1238;-68
2022/11/25 00:44:34;;;;;;;10.95;6.28;;;;;;;2.49;79.48;99412.94;346306;28;1229;-67
2022/11/25 00:44:40;;;;;;;11.82;6.00;;;;;;;1.91;80.56;99421.66;346303;28;1074;-68
2022/11/25 00:44:53;;;;;;;12.45;5.85;;;;;;;1.95;80.53;99420.81;345105;28;974;-68
2022/11/25 00:45:05;;;;;;;10.75;5.68;;;;;;;1.94;80.59;99425.94;345126;28;1248;-67
2022/11/25 00:45:17;;;;;;;11.30;5.70;;;;;;;1.96;80.18;99421.66;345345;28;1304;-67
2022/11/25 00:45:29;;;;;;;9.68;5.60;;;;;;;1.88;80.16;99419.09;346363;28;1026;-68
2022/11/25 00:45:42;;;;;;;8.65;5.28;;;;;;;1.87;80.08;99424.22;345814;28;1893;-67
2022/11/25 00:45:54;;;;;;;9.35;5.35;;;;;;;1.69;79.98;99419.94;346127;28;1479;-68
2022/11/25 00:46:06;;;;;;;9.73;5.40;;;;;;;1.70;80.69;99430.22;346581;28;1086;-68
2022/11/25 00:46:18;;;;;;;11.18;5.30;;;;;;;1.72;80.98;99432.78;345685;28;1267;-68
2022/11/25 00:46:30;;;;;;;12.50;5.20;;;;;;;1.69;80.93;99425.06;346308;28;1044;-68
2022/11/25 00:46:42;;;;;;;11.73;5.13;;;;;;;1.72;80.80;99428.50;346320;28;1057;-68
2022/11/25 00:46:54;;;;;;;9.52;4.93;;;;;;;1.81;80.66;99432.75;346560;28;1146;-68
2022/11/25 00:47:24;;;;;;;8.73;4.88;;;;;;;1.79;80.26;99429.34;346285;28;1054;-68
2022/11/25 00:47:36;;;;;;;11.93;5.60;;;;;;;1.83;80.06;99431.03;345466;28;1677;-68
2022/11/25 00:47:48;;;;;;;12.10;5.65;;;;;;;1.82;80.33;99428.50;346626;28;767;-68
2022/11/25 00:48:00;;;;;;;11.20;5.40;;;;;;;1.84;80.06;99427.66;344980;28;1089;-68
2022/11/25 00:48:11;;;;;;;11.80;5.60;;;;;;;1.91;80.52;99424.22;344760;28;1032;-68
2022/11/25 00:48:23;;;;;;;10.18;5.40;;;;;;;1.95;80.65;99431.06;345923;28;1298;-68
2022/11/25 00:48:35;;;;;;;11.60;5.50;;;;;;;1.97;81.66;99429.34;346503;28;1060;-68
2022/11/25 00:48:47;;;;;;;11.77;5.78;;;;;;;2.05;81.47;99428.47;346105;28;1022;-68
2022/11/25 00:48:59;;;;;;;10.50;5.80;;;;;;;2.09;81.63;99428.44;346521;28;1022;-68
2022/11/25 00:49:11;;;;;;;10.32;5.35;;;;;;;2.16;81.54;99429.31;346341;28;1244;-68
2022/11/25 00:49:23;;;;;;;9.75;5.22;;;;;;;2.21;81.85;99427.56;346190;28;1274;-68
2022/11/25 00:49:36;;;;;;;9.90;5.35;;;;;;;2.27;81.65;99432.69;345705;28;1613;-68
2022/11/25 00:49:52;;;;;;;10.88;5.40;;;;;;;2.31;81.93;99429.25;345881;28;1710;-68
2022/11/25 00:50:04;;;;;;;11.23;5.25;;;;;;;2.37;82.03;99429.25;346402;28;1042;-68
2022/11/25 00:50:16;;;;;;;10.13;5.15;;;;;;;2.35;82.03;99428.38;346620;28;1433;-68
2022/11/25 00:50:28;;;;;;;9.68;5.38;;;;;;;2.35;82.53;99433.50;346315;28;1051;-68
2022/11/25 00:50:41;;;;;;;10.48;5.60;;;;;;;2.39;82.45;99427.56;346466;28;1054;-68
2022/11/25 00:50:53;;;;;;;11.32;6.10;;;;;;;2.41;82.32;99424.97;346415;28;1054;-68
2022/11/25 00:51:05;;;;;;;11.88;6.47;;;;;;;2.40;82.70;99426.69;345094;28;1285;-68
2022/11/25 00:51:17;;;;;;;13.40;6.68;;;;;;;2.40;82.99;99423.25;345410;28;2154;-68
2022/11/25 00:51:29;;;;;;;13.38;6.75;;;;;;;2.45;82.96;99434.34;345985;28;1027;-68
2022/11/25 00:51:41;;;;;;;12.48;6.40;;;;;;;2.42;83.03;99425.84;346175;28;1262;-68
2022/11/25 00:51:53;;;;;;;12.40;6.78;;;;;;;2.42;83.12;99425.84;346675;28;756;-67
2022/11/25 00:52:06;;;;;;;14.75;6.80;;;;;;;2.40;83.25;99426.69;345993;28;1054;-68
2022/11/25 00:52:23;;;;;;;15.55;7.03;;;;;;;2.46;83.11;99423.25;346152;28;1289;-68
2022/11/25 00:52:35;;;;;;;15.55;7.20;;;;;;;2.51;83.14;99418.09;345987;28;1987;-67
2022/11/25 00:52:47;;;;;;;14.68;7.00;;;;;;;2.49;83.13;99425.78;345977;28;1173;-68
2022/11/25 00:52:59;;;;;;;13.35;6.78;;;;;;;2.50;83.12;99424.09;346148;28;1143;-67
2022/11/25 00:53:11;;;;;;;13.35;6.90;;;;;;;2.51;82.74;99420.66;345782;28;1909;-68
2022/11/25 00:53:24;;;;;;;13.98;7.35;;;;;;;2.55;82.80;99425.75;345580;28;1988;-68
2022/11/25 00:53:36;;;;;;;12.90;7.20;;;;;;;2.57;83.01;99423.19;345555;28;2064;-68
2022/11/25 00:53:47;;;;;;;13.00;7.20;;;;;;;2.53;82.68;99432.59;346345;28;1626;-68
2022/11/25 00:53:59;;;;;;;13.02;7.18;;;;;;;2.51;82.79;99428.34;346085;28;1337;-68
2022/11/25 00:54:11;;;;;;;14.50;7.38;;;;;;;2.47;82.66;99424.94;346375;28;1043;-68
2022/11/25 00:54:23;;;;;;;16.30;7.68;;;;;;;2.46;82.73;99427.53;345575;28;1344;-68
2022/11/25 00:54:35;;;;;;;15.50;7.53;;;;;;;2.38;83.02;99425.81;346344;28;1187;-68
2022/11/25 00:54:48;;;;;;;13.45;7.28;;;;;;;2.39;83.28;99427.56;346234;28;1162;-69
2022/11/25 00:55:00;;;;;;;15.07;7.13;;;;;;;2.39;83.21;99426.69;346484;28;1052;-68
2022/11/25 00:55:12;;;;;;;14.15;6.95;;;;;;;2.38;83.44;99428.38;346621;28;1172;-68
2022/11/25 00:56:11;;;;;;;13.52;7.13;;;;;;;2.42;83.67;99433.53;346451;28;1296;-68
2022/11/25 00:56:12;;;;;;;11.60;6.47;;;;;;;2.58;83.28;99424.91;345112;28;1184;-69
2022/11/25 00:56:25;;;;;;;13.02;6.68;;;;;;;2.62;83.30;99425.72;346551;28;1253;-68
2022/11/25 00:56:37;;;;;;;12.52;6.57;;;;;;;2.59;82.90;99424.88;346370;28;1156;-68
2022/11/25 00:56:49;;;;;;;11.65;6.75;;;;;;;2.61;83.05;99422.31;346322;28;1029;-68
2022/11/25 00:57:01;;;;;;;12.82;6.93;;;;;;;2.58;83.04;99419.78;346379;28;1566;-68
2022/11/25 00:57:15;;;;;;;12.45;6.70;;;;;;;2.60;83.01;99420.63;345077;28;1146;-68
2022/11/25 00:57:28;;;;;;;11.65;6.47;;;;;;;2.61;83.18;99422.31;346528;28;1054;-68
2022/11/25 00:57:40;;;;;;;12.02;6.55;;;;;;;2.60;82.85;99420.63;346328;28;1302;-68
2022/11/25 00:57:52;;;;;;;11.80;6.55;;;;;;;2.61;83.02;99417.19;346210;28;1101;-68
2022/11/25 00:58:04;;;;;;;12.55;6.50;;;;;;;2.63;83.22;99425.72;346200;28;1242;-68
2022/11/25 00:58:16;;;;;;;12.60;6.60;;;;;;;2.61;82.94;99417.19;346290;28;1247;-67
2022/11/25 00:58:27;;;;;;;12.50;6.50;;;;;;;2.63;83.03;99419.75;346455;28;1050;-68
2022/11/25 00:58:43;;;;;;;11.57;6.60;;;;;;;2.63;82.68;99424.88;346537;28;1013;-68
2022/11/25 00:58:56;;;;;;;12.13;6.63;;;;;;;2.60;82.53;99421.47;345316;28;2609;-68
2022/11/25 00:59:08;;;;;;;14.00;6.70;;;;;;;2.55;82.27;99420.63;345102;28;1210;-68
2022/11/25 00:59:20;;;;;;;14.45;6.65;;;;;;;2.53;81.91;99424.06;346223;28;1265;-68
2022/11/25 00:59:32;;;;;;;14.65;6.60;;;;;;;2.51;81.94;99420.66;346309;28;1109;-68
2022/11/25 00:59:45;;;;;;;14.52;6.38;;;;;;;2.48;81.80;99420.69;346322;28;1203;-68
2022/11/25 00:59:56;;;;;;;14.85;6.22;;;;;;;2.45;81.72;99428.38;346564;28;1098;-68
2022/11/25 01:00:10;;;;;;;13.25;6.22;;;;;;;2.36;81.24;99427.53;346313;28;1187;-68
2022/11/25 01:00:22;;;;;;;15.02;6.40;;;;;;;2.40;81.23;99429.25;346018;28;1386;-69
2022/11/25 01:00:34;;;;;;;15.40;6.57;;;;;;;2.38;80.89;99428.38;345955;28;1615;-68
2022/11/25 01:00:46;;;;;;;15.07;6.68;;;;;;;2.35;80.69;99423.25;346628;28;1049;-68
2022/11/25 01:01:00;;;;;;;14.13;6.43;;;;;;;2.40;80.97;99431.81;346393;28;1196;-68
2022/11/25 01:01:13;;;;;;;13.57;5.95;;;;;;;2.46;80.80;99427.53;345941;28;2151;-68
2022/11/25 01:01:25;;;;;;;11.68;5.50;;;;;;;2.50;81.00;99429.22;346202;28;1515;-68
2022/11/25 01:01:37;;;;;;;11.88;5.68;;;;;;;2.54;80.79;99420.66;345380;28;1248;-68
2022/11/25 01:01:49;;;;;;;12.23;6.18;;;;;;;2.58;80.96;99427.47;344967;28;1059;-68
2022/11/25 01:02:01;;;;;;;12.32;6.22;;;;;;;2.60;81.00;99426.59;345126;28;1007;-67
2022/11/25 01:02:15;;;;;;;13.43;6.57;;;;;;;2.57;80.87;99430.88;345091;28;1261;-69
2022/11/25 01:02:27;;;;;;;14.82;7.07;;;;;;;2.54;80.56;99425.78;344270;28;1209;-67
2022/11/25 01:02:39;;;;;;;13.73;6.90;;;;;;;2.49;80.67;99424.94;345646;28;1566;-68
2022/11/25 01:02:51;;;;;;;14.93;7.00;;;;;;;2.45;80.56;99428.38;344891;28;1181;-68
2022/11/25 01:03:03;;;;;;;14.55;7.00;;;;;;;2.50;80.73;99424.94;344979;28;1146;-68
2022/11/25 01:03:15;;;;;;;12.55;6.70;;;;;;;2.55;80.89;99423.19;344982;28;1178;-68
2022/11/25 01:03:27;;;;;;;11.95;6.35;;;;;;;2.59;80.99;99418.91;344978;28;1273;-68
2022/11/25 01:03:39;;;;;;;11.85;6.65;;;;;;;2.54;80.54;99425.78;345060;28;1595;-68
2022/11/25 01:03:52;;;;;;;13.93;7.07;;;;;;;2.51;80.54;99428.34;345721;28;1095;-68
2022/11/25 01:04:06;;;;;;;15.55;7.53;;;;;;;2.50;80.77;99426.66;346004;28;1161;-68
2022/11/25 01:04:18;;;;;;;16.25;7.80;;;;;;;2.52;80.71;99428.34;345980;28;1348;-67
2022/11/25 01:04:30;;;;;;;16.58;7.70;;;;;;;2.57;80.79;99428.31;345966;28;1113;-68
2022/11/25 01:04:42;;;;;;;15.55;7.63;;;;;;;2.58;80.86;99427.47;345945;28;862;-67
2022/11/25 01:04:54;;;;;;;17.08;8.10;;;;;;;2.60;81.17;99430.91;346199;28;1051;-67
2022/11/25 01:05:06;;;;;;;17.02;8.10;;;;;;;2.64;80.69;99424.03;346087;28;1060;-68
2022/11/25 01:05:18;;;;;;;16.33;7.93;;;;;;;2.68;81.09;99429.16;345915;28;1299;-68
2022/11/25 01:05:31;;;;;;;14.85;7.65;;;;;;;2.70;80.80;99426.59;345980;28;1015;-68
2022/11/25 01:05:43;;;;;;;15.18;7.63;;;;;;;2.72;81.05;99428.28;345339;28;2215;-69
2022/11/25 01:06:00;;;;;;;15.70;7.68;;;;;;;2.73;81.18;99427.41;345619;28;1847;-68